createdAt,value
2018-03-12T00:01:38.806Z,8.90
2018-03-12T00:04:05.406Z,8.80
2018-03-12T00:06:31.980Z,8.80
2018-03-12T00:08:58.513Z,8.70
2018-03-12T00:11:25.097Z,8.70
2018-03-12T00:13:51.669Z,8.70
2018-03-12T00:16:18.308Z,8.70
2018-03-12T00:18:44.886Z,8.70
2018-03-12T00:21:11.865Z,8.70
2018-03-12T00:23:38.420Z,8.70
2018-03-12T00:26:04.993Z,8.70
2018-03-12T00:28:31.562Z,8.80
2018-03-12T00:30:58.109Z,8.80
2018-03-12T00:33:24.685Z,8.80
2018-03-12T00:35:51.639Z,8.80
2018-03-12T00:38:18.204Z,8.80
2018-03-12T00:40:44.765Z,8.80
2018-03-12T00:43:11.334Z,8.80
2018-03-12T00:45:37.970Z,8.80
2018-03-12T00:48:04.543Z,8.70
2018-03-12T00:50:31.120Z,8.70
2018-03-12T00:52:58.151Z,8.70
2018-03-12T00:55:24.730Z,8.70
2018-03-12T00:57:51.670Z,8.70
2018-03-12T01:00:18.237Z,8.80
2018-03-12T01:02:45.182Z,8.70
2018-03-12T01:05:12.213Z,8.70
2018-03-12T01:07:38.832Z,8.70
2018-03-12T01:10:05.482Z,8.70
2018-03-12T01:12:32.062Z,8.60
2018-03-12T01:14:58.597Z,8.50
2018-03-12T01:17:25.154Z,8.50
2018-03-12T01:19:51.738Z,8.50
2018-03-12T01:22:18.657Z,8.50
2018-03-12T01:24:45.230Z,8.50
2018-03-12T01:27:12.183Z,8.40
2018-03-12T01:29:38.722Z,8.50
2018-03-12T01:32:05.411Z,8.50
2018-03-12T01:34:31.985Z,8.50
2018-03-12T01:36:58.523Z,8.50
2018-03-12T01:39:25.094Z,8.50
2018-03-12T01:41:51.658Z,8.50
2018-03-12T01:44:18.190Z,8.50
2018-03-12T01:46:44.769Z,8.40
2018-03-12T01:49:11.701Z,8.40
2018-03-12T01:51:38.237Z,8.40
2018-03-12T01:54:04.847Z,8.40
2018-03-12T01:56:31.526Z,8.40
2018-03-12T01:58:58.101Z,8.40
2018-03-12T02:01:24.670Z,8.40
2018-03-12T02:03:51.778Z,8.30
2018-03-12T02:06:18.321Z,8.30
2018-03-12T02:08:44.906Z,8.40
2018-03-12T02:11:11.473Z,8.30
2018-03-12T02:13:38.502Z,8.30
2018-03-12T02:16:05.069Z,8.30
2018-03-12T02:18:31.801Z,8.30
2018-03-12T02:20:58.349Z,8.20
2018-03-12T02:23:24.927Z,8.20
2018-03-12T02:25:51.861Z,8.20
2018-03-12T02:28:18.502Z,8.20
2018-03-12T02:30:45.121Z,8.20
2018-03-12T02:33:11.702Z,8.30
2018-03-12T02:35:38.233Z,8.20
2018-03-12T02:38:05.215Z,8.20
2018-03-12T02:40:32.189Z,8.20
2018-03-12T02:42:59.094Z,8.20
2018-03-12T02:45:25.725Z,8.20
2018-03-12T02:47:52.285Z,8.20
2018-03-12T02:50:18.860Z,8.20
2018-03-12T02:52:45.502Z,8.30
2018-03-12T02:55:12.072Z,8.30
2018-03-12T02:57:38.613Z,8.30
2018-03-12T03:00:05.302Z,8.30
2018-03-12T03:02:31.866Z,8.30
2018-03-12T03:04:58.436Z,8.40
2018-03-12T03:07:25.097Z,8.50
2018-03-12T03:09:51.681Z,8.40
2018-03-12T03:12:18.584Z,8.30
2018-03-12T03:17:39.329Z,8.30
2018-03-12T03:20:05.898Z,8.30
2018-03-12T03:22:32.458Z,8.30
2018-03-12T03:24:59.046Z,8.20
2018-03-12T03:27:25.637Z,8.20
2018-03-12T03:29:52.639Z,8.20
2018-03-12T03:32:19.472Z,8.20
2018-03-12T03:34:46.066Z,8.20
2018-03-12T03:37:12.625Z,8.20
2018-03-12T03:39:39.161Z,8.10
2018-03-12T03:42:05.726Z,8.10
2018-03-12T03:44:32.358Z,8.10
2018-03-12T03:46:58.888Z,8.10
2018-03-12T03:49:25.450Z,8.10
2018-03-12T03:51:52.016Z,8.10
2018-03-12T03:54:18.578Z,8.10
2018-03-12T03:56:45.325Z,8.10
2018-03-12T03:59:11.886Z,8.20
2018-03-12T04:01:38.419Z,8.20
2018-03-12T04:04:05.025Z,8.10
2018-03-12T04:06:31.690Z,8.10
2018-03-12T04:08:58.230Z,8.20
2018-03-12T04:11:24.885Z,8.20
2018-03-12T04:13:51.459Z,8.20
2018-03-12T04:16:17.989Z,8.20
2018-03-12T04:18:44.657Z,8.20
2018-03-12T04:21:11.231Z,8.20
2018-03-12T04:23:38.180Z,8.30
2018-03-12T04:26:04.781Z,8.30
2018-03-12T04:28:31.345Z,8.20
2018-03-12T04:30:57.882Z,8.20
2018-03-12T04:33:24.437Z,8.20
2018-03-12T04:35:58.024Z,8.20
2018-03-12T04:38:24.585Z,8.20
2018-03-12T04:40:51.171Z,8.20
2018-03-12T04:43:17.708Z,8.20
2018-03-12T04:45:44.270Z,8.20
2018-03-12T04:48:10.901Z,8.20
2018-03-12T04:50:37.438Z,8.10
2018-03-12T04:53:04.000Z,8.00
2018-03-12T04:55:30.564Z,8.10
2018-03-12T04:57:57.096Z,8.00
2018-03-12T05:00:23.709Z,8.00
2018-03-12T05:02:50.273Z,8.10
2018-03-12T05:05:16.846Z,8.00
2018-03-12T05:07:43.453Z,8.00
2018-03-12T05:10:10.018Z,8.00
2018-03-12T05:12:36.680Z,8.00
2018-03-12T05:15:03.331Z,8.00
2018-03-12T05:17:29.902Z,7.90
2018-03-12T05:19:56.846Z,7.90
2018-03-12T05:22:23.484Z,7.90
2018-03-12T05:24:50.133Z,7.90
2018-03-12T05:27:16.778Z,7.80
2018-03-12T05:29:43.362Z,7.80
2018-03-12T05:32:10.305Z,7.70
2018-03-12T05:34:37.234Z,7.70
2018-03-12T05:37:03.794Z,7.70
2018-03-12T05:39:30.369Z,7.70
2018-03-12T05:41:57.291Z,7.70
2018-03-12T05:44:23.885Z,7.70
2018-03-12T05:46:50.516Z,7.70
2018-03-12T05:49:17.434Z,7.70
2018-03-12T05:51:44.002Z,7.70
2018-03-12T05:54:10.567Z,7.60
2018-03-12T05:56:37.089Z,7.60
2018-03-12T05:59:03.735Z,7.60
2018-03-12T06:01:30.302Z,7.70
2018-03-12T06:03:56.906Z,7.70
2018-03-12T06:06:23.469Z,7.70
2018-03-12T06:08:50.038Z,7.70
2018-03-12T06:11:16.568Z,7.80
2018-03-12T06:13:43.134Z,7.70
2018-03-12T06:16:09.709Z,7.70
2018-03-12T06:18:36.605Z,7.80
2018-03-12T06:21:03.177Z,7.80
2018-03-12T06:23:29.878Z,7.80
2018-03-12T06:25:56.425Z,7.70
2018-03-12T06:28:23.049Z,7.70
2018-03-12T06:30:50.041Z,7.70
2018-03-12T06:33:16.578Z,7.80
2018-03-12T06:35:43.150Z,7.70
2018-03-12T06:38:09.717Z,7.70
2018-03-12T06:40:36.257Z,7.70
2018-03-12T06:43:02.833Z,7.80
2018-03-12T06:45:29.412Z,7.80
2018-03-12T06:47:55.946Z,7.80
2018-03-12T06:50:22.964Z,7.90
2018-03-12T06:52:49.740Z,7.90
2018-03-12T06:55:16.305Z,7.90
2018-03-12T06:57:43.246Z,8.00
2018-03-12T07:00:10.202Z,8.00
2018-03-12T07:02:37.130Z,8.00
2018-03-12T07:05:03.746Z,8.00
2018-03-12T07:07:30.308Z,8.00
2018-03-12T07:09:56.842Z,8.20
2018-03-12T07:12:23.410Z,8.10
2018-03-12T07:14:50.038Z,8.00
2018-03-12T07:17:16.585Z,8.00
2018-03-12T07:19:43.153Z,8.00
2018-03-12T07:22:09.723Z,8.00
2018-03-12T07:24:36.250Z,8.00
2018-03-12T07:27:02.873Z,8.00
2018-03-12T07:29:29.486Z,8.20
2018-03-12T07:31:56.019Z,8.20
2018-03-12T07:34:22.589Z,8.20
2018-03-12T07:36:49.585Z,8.30
2018-03-12T07:39:16.133Z,8.30
2018-03-12T07:41:42.705Z,8.30
2018-03-12T07:44:09.327Z,8.20
2018-03-12T07:46:35.837Z,8.30
2018-03-12T07:49:02.791Z,8.40
2018-03-12T07:51:29.731Z,8.50
2018-03-12T07:53:56.263Z,8.50
2018-03-12T07:56:22.834Z,8.40
2018-03-12T07:58:49.797Z,8.50
2018-03-12T08:01:16.747Z,8.60
2018-03-12T08:03:43.301Z,8.60
2018-03-12T08:06:10.273Z,8.60
2018-03-12T08:08:36.802Z,8.50
2018-03-12T08:11:03.738Z,8.70
2018-03-12T08:13:30.311Z,8.70
2018-03-12T08:15:56.854Z,8.80
2018-03-12T08:18:23.825Z,9.00
2018-03-12T08:20:50.426Z,9.00
2018-03-12T08:23:16.974Z,9.00
2018-03-12T08:25:43.546Z,9.10
2018-03-12T08:28:10.507Z,9.20
2018-03-12T08:30:37.424Z,9.20
2018-03-12T08:33:04.002Z,9.20
2018-03-12T08:35:30.941Z,9.50
2018-03-12T08:37:57.479Z,9.50
2018-03-12T08:40:24.050Z,9.70
2018-03-12T08:42:50.689Z,9.70
2018-03-12T08:45:17.226Z,9.80
2018-03-12T08:47:43.789Z,9.90
2018-03-12T08:50:17.398Z,9.90
2018-03-12T08:52:43.973Z,10.00
2018-03-12T08:55:10.550Z,10.10
2018-03-12T08:57:37.085Z,10.30
2018-03-12T09:00:03.733Z,10.50
2018-03-12T09:02:30.310Z,10.70
2018-03-12T09:04:56.877Z,10.80
2018-03-12T09:07:23.446Z,11.00
2018-03-12T09:09:50.393Z,11.40
2018-03-12T09:12:16.961Z,11.50
2018-03-12T09:14:43.915Z,11.80
2018-03-12T09:17:10.885Z,11.90
2018-03-12T09:19:37.424Z,11.90
2018-03-12T09:22:04.371Z,12.10
2018-03-12T09:24:31.313Z,12.00
2018-03-12T09:26:57.846Z,12.00
2018-03-12T09:29:24.410Z,11.90
2018-03-12T09:31:50.978Z,11.80
2018-03-12T09:34:17.882Z,11.90
2018-03-12T09:36:44.432Z,12.00
2018-03-12T09:39:11.168Z,12.10
2018-03-12T09:41:37.697Z,11.90
2018-03-12T09:44:04.270Z,11.80
2018-03-12T09:46:30.834Z,11.80
2018-03-12T09:48:57.372Z,11.80
2018-03-12T09:51:23.930Z,11.80
2018-03-12T09:53:50.505Z,11.80
2018-03-12T09:56:17.409Z,11.60
2018-03-12T09:58:43.975Z,11.60
2018-03-12T10:01:10.575Z,11.50
2018-03-12T10:03:37.479Z,11.40
2018-03-12T10:06:04.091Z,11.40
2018-03-12T10:08:30.665Z,11.50
2018-03-12T10:10:57.251Z,11.50
2018-03-12T10:13:23.798Z,11.50
2018-03-12T10:15:50.357Z,11.50
2018-03-12T10:18:17.269Z,11.70
2018-03-12T10:20:43.837Z,11.60
2018-03-12T10:23:10.397Z,11.70
2018-03-12T10:25:36.937Z,12.00
2018-03-12T10:28:03.545Z,12.10
2018-03-12T10:30:30.171Z,12.10
2018-03-12T10:32:56.712Z,12.10
2018-03-12T10:35:23.281Z,12.10
2018-03-12T10:37:49.854Z,12.10
2018-03-12T10:40:16.397Z,12.10
2018-03-12T10:42:42.962Z,12.20
2018-03-12T10:45:09.540Z,12.10
2018-03-12T10:47:36.110Z,12.10
2018-03-12T10:50:02.744Z,12.10
2018-03-12T10:52:29.673Z,12.00
2018-03-12T10:54:56.206Z,12.00
2018-03-12T10:57:22.776Z,12.30
2018-03-12T10:59:49.706Z,12.80
2018-03-12T11:02:16.286Z,12.80
2018-03-12T11:07:47.675Z,13.10
2018-03-12T11:10:14.631Z,13.20
2018-03-12T11:12:41.582Z,13.00
2018-03-12T11:15:08.497Z,12.70
2018-03-12T11:17:35.070Z,12.70
2018-03-12T11:20:01.644Z,12.40
2018-03-12T11:22:28.549Z,12.50
2018-03-12T11:24:55.113Z,12.50
2018-03-12T11:27:21.673Z,12.40
2018-03-12T11:29:48.243Z,12.40
2018-03-12T11:32:15.186Z,12.50
2018-03-12T11:34:41.753Z,12.40
2018-03-12T11:37:08.657Z,12.40
2018-03-12T11:39:35.229Z,12.40
2018-03-12T11:42:01.840Z,12.40
2018-03-12T11:44:28.386Z,12.50
2018-03-12T11:46:54.950Z,12.70
2018-03-12T11:49:21.521Z,12.60
2018-03-12T11:51:48.061Z,12.50
2018-03-12T11:54:14.628Z,12.60
2018-03-12T11:56:41.574Z,12.40
2018-03-12T11:59:08.109Z,12.40
2018-03-12T12:01:34.685Z,12.30
2018-03-12T12:04:01.271Z,12.10
2018-03-12T12:06:27.881Z,12.30
2018-03-12T12:08:54.825Z,12.20
2018-03-12T12:11:21.395Z,12.20
2018-03-12T12:13:48.333Z,12.10
2018-03-12T12:16:15.273Z,12.00
2018-03-12T12:18:41.845Z,12.00
2018-03-12T12:21:08.746Z,11.90
2018-03-12T12:23:35.313Z,11.90
2018-03-12T12:26:01.885Z,11.70
2018-03-12T12:28:28.794Z,11.80
2018-03-12T12:30:55.397Z,11.80
2018-03-12T12:33:22.392Z,11.90
2018-03-12T12:35:48.951Z,11.90
2018-03-12T12:38:15.513Z,12.10
2018-03-12T12:40:42.080Z,12.20
2018-03-12T12:43:08.618Z,12.30
2018-03-12T12:45:35.181Z,12.20
2018-03-12T12:48:01.761Z,12.10
2018-03-12T12:50:28.318Z,12.10
2018-03-12T12:52:54.907Z,12.10
2018-03-12T12:55:21.486Z,12.20
2018-03-12T12:57:48.395Z,12.10
2018-03-12T13:00:14.949Z,12.10
2018-03-12T13:02:41.558Z,12.10
2018-03-12T13:05:08.086Z,12.10
2018-03-12T13:07:35.057Z,12.70
2018-03-12T13:10:01.701Z,12.70
2018-03-12T13:12:28.250Z,12.90
2018-03-12T13:14:54.818Z,13.00
2018-03-12T13:17:21.393Z,13.20
2018-03-12T13:19:47.961Z,13.40
2018-03-12T13:22:14.518Z,13.50
2018-03-12T13:24:41.084Z,13.70
2018-03-12T13:27:07.785Z,13.50
2018-03-12T13:29:34.352Z,13.30
2018-03-12T13:32:00.931Z,13.20
2018-03-12T13:34:27.473Z,13.20
2018-03-12T13:36:54.414Z,13.30
2018-03-12T13:39:21.354Z,13.20
2018-03-12T13:41:47.902Z,13.20
2018-03-12T13:44:14.478Z,13.30
2018-03-12T13:46:41.415Z,13.20
2018-03-12T13:49:07.947Z,13.20
2018-03-12T13:51:34.586Z,13.10
2018-03-12T13:54:01.175Z,13.30
2018-03-12T13:56:27.741Z,13.30
2018-03-12T13:58:54.309Z,13.40
2018-03-12T14:01:20.879Z,13.50
2018-03-12T14:03:47.471Z,13.60
2018-03-12T14:06:14.446Z,13.90
2018-03-12T14:08:41.061Z,13.90
2018-03-12T14:11:07.594Z,13.90
2018-03-12T14:13:34.163Z,13.80
2018-03-12T14:16:01.116Z,13.70
2018-03-12T14:18:28.034Z,13.70
2018-03-12T14:20:54.608Z,13.70
2018-03-12T14:23:21.188Z,13.70
2018-03-12T14:25:47.730Z,13.80
2018-03-12T14:28:14.318Z,13.80
2018-03-12T14:30:40.920Z,13.70
2018-03-12T14:33:07.468Z,13.60
2018-03-12T14:35:34.397Z,13.20
2018-03-12T14:38:00.973Z,13.20
2018-03-12T14:40:27.509Z,13.30
2018-03-12T14:42:54.446Z,13.60
2018-03-12T14:45:21.017Z,13.60
2018-03-12T14:47:47.914Z,13.60
2018-03-12T14:50:14.485Z,13.60
2018-03-12T14:52:41.049Z,13.60
2018-03-12T14:55:07.586Z,13.50
2018-03-12T14:57:34.154Z,13.50
2018-03-12T15:00:01.166Z,13.50
2018-03-12T15:02:27.710Z,13.50
2018-03-12T15:04:54.278Z,13.30
2018-03-12T15:07:20.886Z,13.20
2018-03-12T15:09:47.426Z,13.10
2018-03-12T15:12:13.993Z,13.10
2018-03-12T15:14:40.574Z,13.10
2018-03-12T15:17:07.118Z,13.00
2018-03-12T15:19:33.743Z,13.00
2018-03-12T15:22:00.302Z,12.90
2018-03-12T15:24:26.842Z,12.80
2018-03-12T15:26:53.438Z,12.60
2018-03-12T15:29:20.388Z,12.40
2018-03-12T15:31:47.301Z,12.40
2018-03-12T15:34:13.875Z,12.40
2018-03-12T15:36:40.441Z,12.40
2018-03-12T15:39:07.360Z,12.20
2018-03-12T15:41:33.929Z,12.20
2018-03-12T15:44:00.498Z,12.10
2018-03-12T15:46:27.412Z,12.20
2018-03-12T15:48:53.990Z,12.20
2018-03-12T15:51:20.934Z,12.10
2018-03-12T15:53:47.472Z,12.10
2018-03-12T15:56:14.054Z,12.10
2018-03-12T15:58:41.004Z,12.00
2018-03-12T16:01:08.130Z,12.00
2018-03-12T16:03:34.780Z,12.00
2018-03-12T16:06:01.352Z,11.90
2018-03-12T16:08:27.922Z,11.80
2018-03-12T16:10:54.495Z,11.70
2018-03-12T16:13:21.147Z,11.70
2018-03-12T16:15:47.682Z,11.70
2018-03-12T16:18:14.250Z,11.70
2018-03-12T16:20:40.834Z,11.60
2018-03-12T16:23:14.255Z,11.50
2018-03-12T16:25:41.202Z,11.30
2018-03-12T16:28:08.145Z,11.30
2018-03-12T16:30:34.710Z,11.30
2018-03-12T16:33:01.674Z,11.10
2018-03-12T16:35:28.322Z,11.10
2018-03-12T16:37:55.261Z,11.00
2018-03-12T16:40:21.840Z,11.00
2018-03-12T16:42:48.386Z,10.90
2018-03-12T16:45:15.326Z,10.60
2018-03-12T16:47:42.267Z,10.60
2018-03-12T16:50:08.813Z,10.60
2018-03-12T16:52:35.386Z,10.50
2018-03-12T16:55:02.334Z,10.40
2018-03-12T16:57:29.241Z,10.30
2018-03-12T16:59:55.825Z,10.30
2018-03-12T17:02:22.403Z,10.10
2018-03-12T17:04:48.954Z,10.10
2018-03-12T17:07:15.549Z,10.00
2018-03-12T17:09:42.133Z,10.00
2018-03-12T17:12:09.043Z,9.90
2018-03-12T17:14:35.609Z,9.90
2018-03-12T17:17:02.187Z,9.90
2018-03-12T17:19:29.122Z,9.80
2018-03-12T17:21:56.637Z,9.80
2018-03-12T17:24:23.235Z,9.80
2018-03-12T17:26:49.779Z,9.70
2018-03-12T17:29:16.350Z,9.70
2018-03-12T17:31:43.290Z,9.60
2018-03-12T17:34:09.827Z,9.60
2018-03-12T17:36:36.413Z,9.40
2018-03-12T17:39:03.474Z,9.20
2018-03-12T17:41:30.035Z,9.30
2018-03-12T17:43:56.613Z,9.20
2018-03-12T17:46:23.190Z,9.20
2018-03-12T17:48:49.754Z,9.10
2018-03-12T17:51:16.789Z,9.10
2018-03-12T17:53:43.373Z,9.10
2018-03-12T17:56:09.906Z,9.00
2018-03-12T17:58:36.506Z,8.90
2018-03-12T18:01:03.106Z,8.80
2018-03-12T18:03:30.010Z,8.80
2018-03-12T18:05:56.614Z,8.80
2018-03-12T18:08:23.618Z,8.80
2018-03-12T18:10:50.200Z,8.80
2018-03-12T18:13:17.179Z,8.60
2018-03-12T18:15:44.139Z,8.50
2018-03-12T18:18:10.746Z,8.50
2018-03-12T18:20:37.323Z,8.50
2018-03-12T18:23:03.914Z,8.50
2018-03-12T18:25:30.455Z,8.40
2018-03-12T18:27:57.017Z,8.40
2018-03-12T18:30:23.586Z,8.40
2018-03-12T18:32:50.129Z,8.40
2018-03-12T18:35:16.726Z,8.30
2018-03-12T18:37:43.298Z,8.30
2018-03-12T18:40:09.969Z,8.20
2018-03-12T18:42:36.954Z,8.20
2018-03-12T18:45:03.934Z,8.20
2018-03-12T18:47:30.477Z,8.20
2018-03-12T18:49:57.054Z,8.20
2018-03-12T18:52:23.626Z,8.20
2018-03-12T18:54:50.158Z,8.10
2018-03-12T18:57:16.730Z,8.10
2018-03-12T18:59:43.298Z,8.10
2018-03-12T19:02:10.317Z,8.10
2018-03-12T19:04:36.913Z,8.10
2018-03-12T19:07:03.905Z,8.00
2018-03-12T19:09:30.482Z,8.00
2018-03-12T19:11:57.070Z,8.00
2018-03-12T19:14:24.049Z,7.90
2018-03-12T19:16:50.604Z,7.90
2018-03-12T19:19:17.170Z,7.80
2018-03-12T19:21:43.737Z,7.80
2018-03-12T19:24:10.687Z,7.80
2018-03-12T19:26:37.253Z,7.80
2018-03-12T19:29:03.878Z,7.80
2018-03-12T19:31:30.490Z,7.80
2018-03-12T19:33:57.466Z,7.70
2018-03-12T19:36:24.046Z,7.60
2018-03-12T19:38:50.805Z,7.60
2018-03-12T19:41:17.677Z,7.60
2018-03-12T19:43:44.695Z,7.60
2018-03-12T19:46:11.362Z,7.60
2018-03-12T19:48:37.978Z,7.60
2018-03-12T19:51:04.562Z,7.60
2018-03-12T19:53:31.098Z,7.70
2018-03-12T19:55:57.840Z,7.70
2018-03-12T19:58:24.495Z,7.60
2018-03-12T20:00:51.049Z,7.60
2018-03-12T20:03:17.638Z,7.60
2018-03-12T20:05:45.392Z,7.60
2018-03-12T20:08:15.990Z,7.50
2018-03-12T20:10:42.766Z,7.60
2018-03-12T20:13:12.457Z,7.50
2018-03-12T20:15:41.457Z,7.60
2018-03-12T20:18:10.322Z,7.60
2018-03-12T20:20:37.262Z,7.50
2018-03-12T20:23:03.914Z,7.50
2018-03-12T20:25:30.945Z,7.40
2018-03-12T20:27:58.497Z,7.40
2018-03-12T20:30:25.075Z,7.40
2018-03-12T20:32:52.571Z,7.40
2018-03-12T20:35:19.563Z,7.40
2018-03-12T20:37:46.097Z,7.40
2018-03-12T20:40:13.378Z,7.30
2018-03-12T20:42:40.745Z,7.30
2018-03-12T20:45:07.765Z,7.40
2018-03-12T20:47:34.730Z,7.40
2018-03-12T20:50:02.010Z,7.40
2018-03-12T20:52:29.100Z,7.40
2018-03-12T20:54:55.672Z,7.40
2018-03-12T20:57:22.403Z,7.30
2018-03-12T20:59:49.293Z,7.30
2018-03-12T21:02:17.198Z,7.40
2018-03-12T21:04:43.785Z,7.40
2018-03-12T21:07:11.351Z,7.30
2018-03-12T21:09:38.122Z,7.40
2018-03-12T21:12:04.694Z,7.30
2018-03-12T21:14:31.669Z,7.30
2018-03-12T21:16:58.238Z,7.30
2018-03-12T21:19:24.806Z,7.30
2018-03-12T21:21:51.342Z,7.30
2018-03-12T21:24:18.024Z,7.30
2018-03-12T21:26:44.656Z,7.20
2018-03-12T21:29:11.205Z,7.20
2018-03-12T21:31:37.782Z,7.20
2018-03-12T21:34:04.739Z,7.10
2018-03-12T21:36:31.663Z,7.10
2018-03-12T21:38:58.415Z,7.10
2018-03-12T21:41:25.038Z,7.10
2018-03-12T21:43:51.681Z,7.10
2018-03-12T21:46:18.261Z,7.10
2018-03-12T21:48:44.833Z,7.10
2018-03-12T21:51:11.754Z,7.10
2018-03-12T21:53:38.314Z,7.10
2018-03-12T21:56:04.907Z,7.10
2018-03-12T21:58:31.515Z,7.10
2018-03-12T22:00:58.126Z,7.20
2018-03-12T22:03:24.811Z,7.20
2018-03-12T22:05:51.495Z,7.10
2018-03-12T22:08:18.509Z,7.10
2018-03-12T22:10:45.676Z,7.20
2018-03-12T22:13:12.210Z,7.20
2018-03-12T22:15:38.842Z,7.20
2018-03-12T22:18:05.409Z,7.20
2018-03-12T22:20:31.942Z,7.20
2018-03-12T22:22:58.615Z,7.20
2018-03-12T22:25:25.182Z,7.20
2018-03-12T22:27:51.733Z,7.10
2018-03-12T22:30:18.299Z,7.10
2018-03-12T22:32:44.865Z,7.10
2018-03-12T22:35:11.404Z,7.10
2018-03-12T22:37:38.204Z,7.10
2018-03-12T22:40:04.821Z,7.10
2018-03-12T22:42:31.399Z,7.20
2018-03-12T22:44:58.010Z,7.10
2018-03-12T22:47:24.587Z,7.10
2018-03-12T22:49:51.222Z,7.10
2018-03-12T22:52:17.896Z,7.10
2018-03-12T22:54:44.545Z,7.00
2018-03-12T22:57:11.091Z,7.00
2018-03-12T22:59:37.714Z,7.00
2018-03-12T23:02:04.298Z,6.90
2018-03-12T23:04:30.942Z,6.90
2018-03-12T23:06:57.587Z,6.90
2018-03-12T23:09:24.243Z,6.80
2018-03-12T23:11:50.817Z,6.80
2018-03-12T23:14:17.810Z,6.70
2018-03-12T23:16:44.462Z,6.70
2018-03-12T23:19:10.993Z,6.60
2018-03-12T23:21:37.558Z,6.50
2018-03-12T23:24:04.137Z,6.50
2018-03-12T23:26:30.754Z,6.50
2018-03-12T23:28:57.326Z,6.50
2018-03-12T23:31:23.894Z,6.50
2018-03-12T23:33:50.523Z,6.50
2018-03-12T23:36:17.086Z,6.50
2018-03-12T23:38:43.657Z,6.50
2018-03-12T23:41:10.782Z,6.50
2018-03-12T23:43:37.406Z,6.50
2018-03-12T23:46:04.050Z,6.50
2018-03-12T23:48:30.585Z,6.50
2018-03-12T23:50:57.152Z,6.60
2018-03-12T23:53:23.716Z,6.80
2018-03-12T23:55:50.369Z,6.90
2018-03-12T23:58:16.994Z,6.90
